Flight Track Log - Related Links

Times and Time Zones

All times are in EDT time to prevent confusion due to time zone crossing. See the N770NC flight status page for this flight to view local times or setup timezone preferences in your user account.

Time Position Orientation Groundspeed Altitude Reporting Facility
EDT Latitude Longitude Course Direction KTS MPH feet Rate Location/Type
Mon 10:53:08 AM 38.0567 -85.6906 191° South 248 285 3,900  Level Indianapolis Center
Mon 10:54:10 AM 38.0161 -85.7500 229° Southwest 256 295 5,600 1,756 Climbing Indianapolis Center
Mon 10:55:00 AM 37.8614 -86.2377 189° South  Level FlightAware Approximate
Mon 10:55:11 AM 37.9872 -85.8344 247° West 257 296 7,500  Level Indianapolis Center
Mon 10:56:00 AM 37.7600 -86.2600 191° South  Level FlightAware Approximate
Mon 10:56:13 AM 37.9581 -85.9239 248° West 270 311 9,700  Level Indianapolis Center
Mon 10:57:00 AM 37.6610 -86.2848 191° South  Level FlightAware Approximate
Mon 10:57:15 AM 37.9228 -86.0403 249° West 291 335 11,000  Level Indianapolis Center
Mon 10:58:00 AM 37.5620 -86.3095 191° South  Level FlightAware Approximate
Mon 10:58:17 AM 37.8858 -86.1525 247° West 333 383 11,900  Level Indianapolis Center
Mon 10:59:19 AM 37.8061 -86.2317 218° Southwest 370 426 13,500 1,694 Climbing Indianapolis Center
Mon 11:00:21 AM 37.7039 -86.2739 198° South 380 437 15,400 1,935 Climbing Indianapolis Center
Mon 11:01:23 AM 37.5994 -86.3097 195° South 387 445 17,500 1,756 Climbing Indianapolis Center
Mon 11:02:24 AM 37.4900 -86.3281 188° South 392 451 19,000 1,366 Climbing Indianapolis Center
Mon 11:03:26 AM 37.3783 -86.3436 186° South 399 459 20,300 1,258 Climbing Indianapolis Center
Mon 11:04:28 AM 37.2631 -86.3600 186° South 410 472 21,600 1,210 Climbing Indianapolis Center
Mon 11:05:30 AM 37.1256 -86.3847 188° South 419 482 22,800 1,103 Climbing Indianapolis Center
Mon 11:05:55 AM 37.0872 -86.3939 191° South 433 498 23,200 1,129 Climbing Memphis Center
Mon 11:06:55 AM 36.9572 -86.4314 193° South 433 498 24,400 900 Climbing Memphis Center
Mon 11:07:55 AM 36.8511 -86.4989 207° Southwest 433 498 25,000 500 Climbing Memphis Center
Mon 11:08:55 AM 36.7428 -86.5689 207° Southwest 445 512 25,400 650 Climbing Memphis Center
Mon 11:09:55 AM 36.6300 -86.6364 206° Southwest 445 512 26,300 800 Climbing Memphis Center
Mon 11:10:55 AM 36.5175 -86.7033 206° Southwest 445 512 27,000 350 Climbing Memphis Center
Mon 11:11:55 AM 36.4067 -86.7650 204° Southwest 445 512 27,000  Level Memphis Center
Mon 11:12:55 AM 36.2858 -86.8400 207° Southwest 453 521 27,000  Level Memphis Center
Mon 11:13:55 AM 36.1767 -86.8883 200° South 475 547 27,000  Level Memphis Center
Mon 11:14:55 AM 36.0433 -86.8914 181° South 452 520 27,000  Level Memphis Center
Mon 11:15:55 AM 35.9156 -86.8661 171° South 453 521 27,000  Level Memphis Center
Mon 11:16:55 AM 35.7914 -86.8306 167° South 458 527 27,000  Level Memphis Center
Mon 11:17:55 AM 35.6672 -86.7922 166° South 463 533 27,000  Level Memphis Center
Mon 11:20:20 AM 35.3747 -86.6903 164° South 458 527 27,000  Level Atlanta Center
Mon 11:21:20 AM 35.2483 -86.6481 165° South 458 527 27,000  Level Atlanta Center
Mon 11:22:20 AM 35.1286 -86.5858 157° South 463 533 27,000  Level Atlanta Center
Mon 11:23:20 AM 35.0369 -86.4739 135° Southeast 457 526 27,000  Level Atlanta Center
Mon 11:24:20 AM 34.9411 -86.3597 136° Southeast 472 543 27,000  Level Atlanta Center
Mon 11:25:20 AM 34.8494 -86.2458 134° Southeast 477 549 27,000 -400 Level Atlanta Center
Mon 11:26:20 AM 34.7553 -86.1269 134° Southeast 477 549 26,200 -900 Descending Atlanta Center
Mon 11:27:20 AM 34.6633 -86.0161 135° Southeast 472 543 25,200 -1,000 Descending Atlanta Center
Mon 11:28:20 AM 34.5753 -85.9056 134° Southeast 465 535 24,200 -1,150 Descending Atlanta Center
Mon 11:29:20 AM 34.4808 -85.7978 137° Southeast 465 535 22,900 -1,300 Descending Atlanta Center
Mon 11:30:20 AM 34.3928 -85.6900 135° Southeast 460 529 21,600 -1,200 Descending Atlanta Center
Mon 11:31:20 AM 34.3125 -85.5856 133° Southeast 434 499 20,500 -1,150 Descending Atlanta Center
Mon 11:32:20 AM 34.2325 -85.4786 132° Southeast 429 494 19,300 -1,350 Descending Atlanta Center
Mon 11:33:20 AM 34.1564 -85.3767 132° Southeast 422 486 17,800 -1,800 Descending Atlanta Center
Mon 11:34:20 AM 34.0822 -85.2803 133° Southeast 409 471 15,700 -2,100 Descending Atlanta Center
Mon 11:35:20 AM 34.0081 -85.1864 134° Southeast 395 455 13,600 -1,400 Descending Atlanta Center
Mon 11:36:20 AM 33.9400 -85.0881 130° Southeast 389 448 12,900 -750 Descending Atlanta Center
Mon 11:37:20 AM 33.8783 -84.9822 125° Southeast 384 442 12,100 -450 Descending Atlanta Center
Mon 11:38:20 AM 33.8228 -84.8739 122° Southeast 389 448 12,000 -65 Descending Atlanta Center
Mon 11:38:53 AM 33.8000 -84.8167 116° Southeast 372 428 12,000  Level Atlanta TRACON
Mon 11:39:53 AM 33.7500 -84.7000 117° Southeast 346 398 12,000  Level Atlanta TRACON
Mon 11:40:53 AM 33.7333 -84.6000 101° East 288 331 12,000 -1,100 Level Atlanta TRACON
Mon 11:41:53 AM 33.7333 -84.5167 90° East 285 328 9,800 -2,150 Descending Atlanta TRACON
Mon 11:42:53 AM 33.7333 -84.4167 90° East 284 327 7,700 -2,050 Descending Atlanta TRACON
Mon 11:43:53 AM 33.7500 -84.3333 76° East 272 313 5,700 -1,350 Descending Atlanta TRACON
Mon 11:44:53 AM 33.7500 -84.2333 90° East 264 304 5,000 -300 Descending Atlanta TRACON
Mon 11:45:53 AM 33.7333 -84.1667 107° East 240 276 5,100  Climbing Atlanta TRACON
Mon 11:46:59 AM 33.6833 -84.1333 151° Southeast 197 227 5,000 -524 Descending Atlanta TRACON
Mon 11:47:59 AM 33.6500 -84.1667 220° Southwest 175 201 4,000 -1,000 Descending Atlanta TRACON

Login

Don't have an account? Register now (free) for customized features, flight alerts, and more!